Time;durP1;ratioP1;P1;durP2;ratioP2;P2;SDS_P1;SDS_P2;PMS_P1;PMS_P2;Temp;Humidity;BMP_temperature;BMP_pressure;BME280_temperature;BME280_humidity;BME280_pressure;Samples;Min_cycle;Max_cycle;Signal;HPM_P1;HPM_P2
2021/05/17 02:27:00;;;;;;;2.50;1.00;;;;;;;18.83;56.73;100009.50;5135895;24;20059;-86
2021/05/17 03:56:19;;;;;;;1.70;0.80;;;;;;;18.78;57.14;99993.13;4847012;24;20070;-93
2021/05/17 05:21:01;;;;;;;9.57;3.83;;;;;;;18.86;57.04;100032.91;4900898;24;20435;-87
2021/05/17 05:50:15;;;;;;;9.60;2.95;;;;;;;19.03;56.17;100035.00;4859023;24;20070;-87
2021/05/17 05:52:43;;;;;;;9.07;2.85;;;;;;;19.04;56.16;100037.56;4771320;30;20032;-87
2021/05/17 05:55:08;;;;;;;6.15;2.60;;;;;;;19.02;56.15;100028.94;4773245;30;20032;-88
2021/05/17 05:57:43;;;;;;;8.27;2.72;;;;;;;19.04;56.11;100037.56;4771216;30;20048;-89
2021/05/17 06:13:10;;;;;;;7.05;2.60;;;;;;;19.05;55.77;100038.44;4785082;30;20518;-87
2021/05/17 06:16:06;;;;;;;6.35;2.33;;;;;;;19.07;55.91;100049.66;4766239;30;20024;-87
2021/05/17 06:18:48;;;;;;;4.97;2.28;;;;;;;19.06;55.77;100042.75;4765281;30;20037;-87
2021/05/17 06:28:08;;;;;;;6.00;2.17;;;;;;;19.08;55.70;100056.59;4823848;24;20062;-88
2021/05/17 06:33:26;;;;;;;5.40;2.00;;;;;;;19.11;55.41;100049.53;4765356;30;20042;-89
2021/05/17 06:35:54;;;;;;;5.22;1.95;;;;;;;19.16;55.58;100051.16;4773317;30;20035;-90
2021/05/17 06:38:20;;;;;;;4.75;1.85;;;;;;;19.18;55.66;100059.81;4761178;30;20107;-88
2021/05/17 06:40:45;;;;;;;4.95;2.00;;;;;;;19.21;55.67;100057.13;4755039;30;20159;-88
2021/05/17 06:43:11;;;;;;;5.72;2.38;;;;;;;19.24;55.56;100062.25;4773696;30;20095;-88
2021/05/17 06:45:37;;;;;;;6.43;2.30;;;;;;;19.25;55.71;100056.97;4765835;30;20063;-88
2021/05/17 06:48:04;;;;;;;5.55;1.80;;;;;;;19.28;55.55;100061.25;4764173;30;20032;-87
2021/05/17 06:50:30;;;;;;;4.72;2.13;;;;;;;19.29;55.66;100055.13;4765417;30;20069;-90
2021/05/17 06:52:56;;;;;;;3.95;1.88;;;;;;;19.33;55.59;100064.56;4749160;30;20063;-89
2021/05/17 06:55:25;;;;;;;4.15;1.77;;;;;;;19.32;55.58;100060.28;4785730;30;20032;-88
2021/05/17 07:00:30;;;;;;;4.00;1.70;;;;;;;19.32;55.51;100070.69;4774560;30;20035;-88
2021/05/17 07:03:27;;;;;;;;;;;;;;;;;;;;;
2021/05/17 07:05:58;;;;;;;4.57;1.85;;;;;;;19.35;55.25;100081.03;4767273;30;20099;-88
2021/05/17 07:11:42;;;;;;;3.17;1.60;;;;;;;19.34;55.39;100076.72;4776307;30;20095;-89
2021/05/17 07:14:20;;;;;;;5.00;1.40;;;;;;;19.37;55.40;100084.47;4758917;30;20047;-89
2021/05/17 07:16:45;;;;;;;5.88;1.73;;;;;;;19.38;55.24;100086.19;4761361;30;20031;-88
2021/05/17 07:19:11;;;;;;;2.30;1.30;;;;;;;19.38;55.28;100087.91;4762136;30;20027;-89
2021/05/17 07:24:22;;;;;;;3.65;1.40;;;;;;;19.39;55.10;100087.88;4776986;30;20563;-90
2021/05/17 07:26:50;;;;;;;3.35;1.40;;;;;;;19.39;55.20;100079.22;4758928;30;20059;-88
2021/05/17 07:29:53;;;;;;;3.05;1.48;;;;;;;19.36;55.46;100074.06;4758678;30;20495;-90
2021/05/17 07:32:19;;;;;;;4.10;1.40;;;;;;;19.34;55.32;100079.34;4774678;30;20035;-89
2021/05/17 07:35:01;;;;;;;;;;;;;;;;;;;;;
2021/05/17 07:37:27;;;;;;;2.97;1.40;;;;;;;19.32;55.33;100087.22;4760474;30;20040;-90
2021/05/17 07:39:55;;;;;;;2.53;1.27;;;;;;;19.32;55.38;100084.59;4758070;30;20100;-88
2021/05/17 07:42:21;;;;;;;4.03;1.30;;;;;;;19.31;55.48;100082.03;4757699;30;20035;-89
2021/05/17 07:51:18;;;;;;;;;;;;;;;;;;;;;
2021/05/17 07:53:47;;;;;;;2.60;1.30;;;;;;;19.32;55.35;100087.22;4779546;30;20053;-92
2021/05/17 07:56:14;;;;;;;2.83;1.38;;;;;;;19.32;55.44;100081.13;4763768;30;20035;-92
2021/05/17 07:58:40;;;;;;;2.17;1.10;;;;;;;19.31;55.19;100088.13;4780758;30;20460;-91
2021/05/17 08:01:05;;;;;;;5.00;1.48;;;;;;;19.36;55.47;100097.53;4763911;30;20130;-91
2021/05/17 08:03:31;;;;;;;2.53;1.20;;;;;;;19.34;55.25;100102.81;4779183;30;20027;-92
2021/05/17 08:05:57;;;;;;;1.77;1.05;;;;;;;19.36;55.36;100111.47;4780553;30;20035;-91
2021/05/17 08:08:22;;;;;;;3.20;1.50;;;;;;;19.36;55.12;100108.84;4767861;30;20141;-89
2021/05/17 08:10:48;;;;;;;2.20;1.20;;;;;;;19.36;55.41;100116.69;4786258;30;20403;-90
2021/05/17 08:13:13;;;;;;;1.85;1.20;;;;;;;19.36;55.13;100121.03;4788106;30;20126;-91
2021/05/17 08:15:38;;;;;;;2.05;1.30;;;;;;;19.34;55.38;100118.47;4779259;30;20072;-90
2021/05/17 08:18:05;;;;;;;1.90;1.05;;;;;;;19.32;55.40;100123.72;4778860;30;20036;-91
2021/05/17 08:20:31;;;;;;;2.17;1.00;;;;;;;19.31;55.26;100122.03;4779419;30;20027;-90
2021/05/17 08:22:56;;;;;;;3.70;1.17;;;;;;;19.32;55.21;100128.09;4776660;30;20031;-90
2021/05/17 08:25:22;;;;;;;2.25;1.10;;;;;;;19.33;55.43;100125.41;4776551;30;20070;-90
2021/05/17 08:27:47;;;;;;;2.80;1.17;;;;;;;19.31;55.11;100127.25;4761556;30;20031;-89
2021/05/17 08:30:23;;;;;;;3.10;1.20;;;;;;;19.31;55.03;100132.47;4774951;30;20039;-88
2021/05/17 08:32:49;;;;;;;2.25;1.20;;;;;;;19.33;55.31;100137.63;4747152;30;20035;-92
2021/05/17 08:35:14;;;;;;;4.65;1.40;;;;;;;19.33;55.12;100142.84;4778752;30;20439;-90
2021/05/17 08:37:42;;;;;;;2.75;1.38;;;;;;;19.32;55.34;100149.81;4750851;30;20034;-88
2021/05/17 08:40:09;;;;;;;3.38;1.30;;;;;;;19.31;55.16;100145.50;4764036;30;20114;-90
2021/05/17 08:42:34;;;;;;;2.20;1.13;;;;;;;19.30;55.34;100148.16;4760136;30;20136;-88
2021/05/17 08:45:01;;;;;;;4.28;1.35;;;;;;;19.31;55.25;100161.16;4775048;30;20040;-87
2021/05/17 08:47:27;;;;;;;1.75;1.10;;;;;;;19.30;55.52;100162.03;4743716;30;20162;-87
2021/05/17 08:49:55;;;;;;;1.92;0.93;;;;;;;19.29;55.27;100159.47;4759171;30;20508;-89
2021/05/17 08:52:29;;;;;;;1.30;0.90;;;;;;;19.30;55.21;100169.03;4759657;30;20043;-89
2021/05/17 08:55:12;;;;;;;2.80;1.08;;;;;;;19.28;55.22;100163.00;4758588;30;20032;-89
2021/05/17 08:57:38;;;;;;;3.05;1.20;;;;;;;19.27;55.29;100164.75;4758700;30;20036;-91
2021/05/17 09:03:25;;;;;;;2.17;1.05;;;;;;;19.29;55.48;100176.00;4776110;30;20515;-89
2021/05/17 09:05:51;;;;;;;3.13;1.10;;;;;;;19.30;55.31;100180.31;4743556;30;20064;-90
2021/05/17 09:08:23;;;;;;;1.95;1.05;;;;;;;19.32;55.13;100186.34;4758730;30;20039;-89
2021/05/17 09:10:49;;;;;;;2.83;0.93;;;;;;;19.35;55.38;100190.63;4758886;30;20055;-89
2021/05/17 09:13:18;;;;;;;1.38;1.02;;;;;;;19.36;55.22;100191.47;4745702;30;20051;-89
2021/05/17 09:15:50;;;;;;;1.80;0.90;;;;;;;19.39;55.20;100196.63;4763853;30;20036;-88
2021/05/17 09:18:24;;;;;;;1.48;0.93;;;;;;;19.41;55.06;100200.03;4788656;30;20050;-90
2021/05/17 09:20:52;;;;;;;2.40;1.00;;;;;;;19.45;55.18;100193.84;4773209;30;20035;-89
2021/05/17 09:23:20;;;;;;;1.38;0.73;;;;;;;19.49;54.90;100200.69;4773830;30;20032;-88
2021/05/17 09:26:27;;;;;;;2.35;0.90;;;;;;;19.54;55.12;100206.63;4773503;30;20089;-89
2021/05/17 09:28:52;;;;;;;1.98;0.80;;;;;;;19.57;54.97;100205.69;4771947;30;20550;-91
2021/05/17 09:31:21;;;;;;;1.55;0.85;;;;;;;19.61;54.97;100209.91;4772107;30;20043;-89
2021/05/17 09:33:46;;;;;;;1.40;0.90;;;;;;;19.62;55.01;100209.88;4771604;30;20042;-88
2021/05/17 09:36:22;;;;;;;1.67;0.80;;;;;;;19.64;54.76;100215.94;4771012;30;20035;-88
2021/05/17 09:39:17;;;;;;;1.63;0.85;;;;;;;19.64;54.92;100210.69;4770721;30;20038;-87
2021/05/17 09:41:44;;;;;;;1.13;0.70;;;;;;;19.62;54.71;100207.28;4772339;30;20048;-90
2021/05/17 09:44:12;;;;;;;2.38;0.98;;;;;;;19.64;54.75;100209.81;4771375;30;20134;-87
2021/05/17 09:47:23;;;;;;;1.83;0.80;;;;;;;19.63;54.85;100208.97;4770717;30;20054;-88
2021/05/17 09:50:01;;;;;;;1.27;0.80;;;;;;;19.66;54.80;100208.91;4772955;30;20089;-88
2021/05/17 09:52:29;;;;;;;1.50;0.80;;;;;;;19.68;54.86;100212.31;4772741;30;20399;-88
2021/05/17 09:55:04;;;;;;;1.30;0.75;;;;;;;19.70;54.73;100226.19;4756468;30;20028;-89
2021/05/17 09:57:49;;;;;;;1.70;0.88;;;;;;;19.71;54.61;100221.84;4774058;30;20060;-90
2021/05/17 10:00:20;;;;;;;1.00;0.60;;;;;;;19.74;54.64;100221.75;4759840;30;20057;-90
2021/05/17 10:02:46;;;;;;;1.48;0.70;;;;;;;19.75;54.68;100228.72;4780345;24;20397;-89
2021/05/17 10:05:19;;;;;;;1.25;0.73;;;;;;;19.76;54.58;100226.94;4757018;30;20031;-88
2021/05/17 10:07:50;;;;;;;1.08;0.70;;;;;;;19.71;54.84;100233.16;4756400;30;20081;-88
2021/05/17 10:10:16;;;;;;;1.77;0.70;;;;;;;19.70;54.88;100238.41;4756003;30;20036;-89
2021/05/17 10:12:42;;;;;;;1.80;0.70;;;;;;;19.66;54.65;100231.53;4755610;30;20031;-88
2021/05/17 10:15:11;;;;;;;2.03;1.02;;;;;;;19.69;54.93;100241.91;4760655;30;20177;-88
2021/05/17 10:17:38;;;;;;;1.45;0.80;;;;;;;19.71;54.66;100243.59;4819029;24;20196;-88
2021/05/17 10:20:06;;;;;;;3.08;0.80;;;;;;;19.71;54.72;100242.75;4749599;30;20040;-87
2021/05/17 10:22:34;;;;;;;1.48;0.80;;;;;;;19.70;54.74;100239.25;4778705;30;20117;-88
2021/05/17 10:25:07;;;;;;;1.02;0.55;;;;;;;19.75;54.67;100246.09;4780427;30;20486;-89
2021/05/17 10:27:46;;;;;;;2.53;0.70;;;;;;;19.76;54.54;100248.69;4762589;30;20040;-91
2021/05/17 10:30:14;;;;;;;1.08;0.70;;;;;;;19.75;54.67;100246.97;4766303;30;20070;-91
2021/05/17 10:32:39;;;;;;;2.25;0.68;;;;;;;19.76;54.47;100255.66;4765947;30;20142;-91
2021/05/17 10:35:21;;;;;;;1.83;0.90;;;;;;;19.73;54.63;100262.69;4781165;30;20057;-87
2021/05/17 10:37:48;;;;;;;1.38;0.70;;;;;;;19.73;54.48;100269.66;4781180;30;20073;-91
2021/05/17 10:40:56;;;;;;;1.08;0.80;;;;;;;19.71;54.65;100266.25;4797976;29;20035;-91
2021/05/17 10:46:41;;;;;;;1.35;0.60;;;;;;;19.80;54.55;100279.03;4797212;30;20046;-90
2021/05/17 10:49:24;;;;;;;2.70;0.70;;;;;;;19.78;54.64;100285.19;4779355;30;20058;-91
2021/05/17 10:52:06;;;;;;;1.75;0.80;;;;;;;19.75;54.67;100293.09;4780680;30;20035;-92
2021/05/17 10:54:43;;;;;;;1.40;0.70;;;;;;;19.72;54.46;100292.28;4779934;30;20471;-90
2021/05/17 10:57:19;;;;;;;1.70;0.80;;;;;;;19.72;54.54;100291.44;4780513;30;20043;-89
2021/05/17 11:02:34;;;;;;;1.30;0.80;;;;;;;19.75;54.62;100304.41;4799553;30;20502;-88
2021/05/17 11:05:20;;;;;;;2.45;1.05;;;;;;;19.75;54.70;100307.03;4779241;30;20046;-87
2021/05/17 11:11:32;;;;;;;5.32;0.90;;;;;;;19.82;54.61;100316.41;4796988;30;20062;-87
2021/05/17 11:14:29;;;;;;;2.10;0.80;;;;;;;19.85;54.61;100318.06;4782805;30;20463;-88
2021/05/17 11:16:59;;;;;;;1.50;0.80;;;;;;;19.86;54.67;100327.59;4764797;30;20138;-88
2021/05/17 11:19:24;;;;;;;1.95;0.90;;;;;;;19.83;54.93;100333.75;4782796;30;20047;-87
2021/05/17 11:21:59;;;;;;;2.85;0.93;;;;;;;19.81;54.73;100346.00;4771932;30;20541;-88
2021/05/17 11:24:25;;;;;;;1.23;0.98;;;;;;;19.82;54.79;100350.34;4768995;30;20035;-90
2021/05/17 11:26:55;;;;;;;1.42;0.90;;;;;;;19.81;54.65;100355.59;4780687;30;20104;-89
2021/05/17 11:29:32;;;;;;;1.65;0.80;;;;;;;19.81;54.47;100353.84;4782619;30;20053;-89
2021/05/17 11:32:16;;;;;;;1.35;0.73;;;;;;;19.82;54.65;100352.09;4779138;30;20031;-90
2021/05/17 11:35:10;;;;;;;1.10;0.63;;;;;;;19.81;54.58;100361.66;4762800;30;20118;-90
2021/05/17 11:37:55;;;;;;;;;;;;;;;19.83;54.53;100365.09;4785149;30;20031;-89
2021/05/17 11:40:29;;;;;;;1.63;0.80;;;;;;;19.84;54.55;100372.06;4794713;29;19976;-90
2021/05/17 11:42:57;;;;;;;2.03;0.90;;;;;;;19.82;54.83;100375.59;4793224;29;20100;-89
2021/05/17 11:45:24;;;;;;;1.92;0.85;;;;;;;19.81;54.45;100379.09;4765383;30;20031;-92
2021/05/17 11:47:54;;;;;;;1.80;0.93;;;;;;;19.82;54.54;100379.06;4777953;30;20057;-90
2021/05/17 11:56:17;;;;;;;1.20;0.70;;;;;;;19.85;54.54;100393.78;4356481;27;20300;-89
2021/05/17 11:58:42;;;;;;;1.65;0.80;;;;;;;19.82;54.44;100392.13;4774401;30;20048;-92
2021/05/17 12:01:25;;;;;;;1.83;0.70;;;;;;;19.81;54.65;100387.78;4776220;30;20110;-91
2021/05/17 12:03:50;;;;;;;1.67;0.80;;;;;;;19.83;54.49;100399.03;4759841;30;20024;-90
2021/05/17 12:09:41;;;;;;;1.13;0.70;;;;;;;19.81;54.61;100410.44;4775398;30;20042;-89
2021/05/17 12:12:22;;;;;;;2.50;0.70;;;;;;;19.86;54.43;100424.22;4759137;30;20024;-90
2021/05/17 12:14:54;;;;;;;1.05;0.73;;;;;;;19.84;54.31;100415.59;4758720;30;20081;-87
2021/05/17 12:17:26;;;;;;;1.10;0.70;;;;;;;19.89;54.59;100430.22;4758984;30;20130;-92
2021/05/17 12:20:00;;;;;;;1.95;0.80;;;;;;;19.87;54.34;100425.94;4758873;30;20032;-90
2021/05/17 12:22:47;;;;;;;1.45;0.85;;;;;;;19.86;54.45;100438.16;4758426;30;20047;-92
2021/05/17 12:25:23;;;;;;;1.95;0.80;;;;;;;19.86;54.40;100440.75;4758023;30;20051;-90
2021/05/17 12:27:50;;;;;;;1.95;0.70;;;;;;;19.88;54.38;100449.41;4758073;30;20088;-89
2021/05/17 12:30:18;;;;;;;1.05;0.70;;;;;;;19.91;54.39;100451.94;4743736;30;20040;-92
2021/05/17 12:32:47;;;;;;;2.33;0.80;;;;;;;19.91;54.41;100451.94;4758426;30;20123;-89
2021/05/17 12:35:21;;;;;;;1.55;0.77;;;;;;;19.91;54.44;100451.94;4759149;30;20046;-92
2021/05/17 12:37:55;;;;;;;1.20;0.77;;;;;;;19.89;54.53;100460.72;4759219;30;20249;-91
2021/05/17 12:40:27;;;;;;;2.15;0.70;;;;;;;19.90;54.42;100460.69;4759241;30;20035;-88
2021/05/17 12:43:04;;;;;;;1.70;0.85;;;;;;;19.91;54.40;100456.31;4758999;30;20122;-90
2021/05/17 12:45:30;;;;;;;1.33;0.73;;;;;;;19.91;54.19;100477.19;4759008;30;20085;-88
2021/05/17 12:47:55;;;;;;;1.42;0.80;;;;;;;19.91;54.21;100480.66;4758404;30;20036;-91
2021/05/17 12:53:43;;;;;;;1.20;0.65;;;;;;;19.95;54.38;100486.69;4775653;30;20043;-92
2021/05/17 12:56:09;;;;;;;1.42;0.80;;;;;;;19.96;54.23;100484.91;4776566;30;20047;-90
2021/05/17 12:58:40;;;;;;;2.50;0.88;;;;;;;19.94;54.19;100490.16;4744696;30;20116;-94
2021/05/17 13:01:15;;;;;;;0.90;0.70;;;;;;;19.96;54.29;100491.00;4759758;30;20063;-93
2021/05/17 13:03:43;;;;;;;1.10;0.70;;;;;;;19.96;54.31;100500.59;4761762;30;20032;-94
2021/05/17 13:06:19;;;;;;;0.60;0.60;;;;;;;19.96;54.42;100497.97;4752107;30;20488;-92
2021/05/17 13:09:22;;;;;;;1.50;0.70;;;;;;;19.93;54.31;100510.22;4767894;30;20036;-93
2021/05/17 13:19:00;;;;;;;2.25;0.63;;;;;;;19.91;54.21;100516.38;4775480;30;20054;-93
2021/05/17 13:21:55;;;;;;;2.13;0.90;;;;;;;19.89;54.10;100528.59;4760824;30;20069;-93
2021/05/17 13:25:18;;;;;;;1.95;0.70;;;;;;;19.83;52.79;100536.59;4761696;30;20066;-93
2021/05/17 13:32:58;;;;;;;2.00;1.00;;;;;;;19.77;53.34;100542.78;4770203;30;20048;-90
2021/05/17 13:35:24;;;;;;;1.23;0.80;;;;;;;19.80;53.47;100547.09;4752428;30;20095;-90
2021/05/17 13:37:50;;;;;;;2.42;1.00;;;;;;;19.81;52.95;100552.28;4760617;30;20050;-90
2021/05/17 13:40:16;;;;;;;2.85;0.70;;;;;;;19.81;53.31;100554.03;4740588;30;20036;-91
2021/05/17 13:49:25;;;;;;;2.85;0.88;;;;;;;19.81;52.96;100582.75;4775193;30;20518;-93
2021/05/17 13:51:50;;;;;;;3.45;1.02;;;;;;;19.81;53.09;100581.00;4742823;30;20040;-92
2021/05/17 13:54:18;;;;;;;4.80;1.08;;;;;;;19.82;52.95;100579.28;4743401;30;20036;-90
2021/05/17 13:56:44;;;;;;;2.45;1.20;;;;;;;19.84;52.90;100587.94;4774679;30;20055;-88
2021/05/17 13:59:10;;;;;;;3.95;1.33;;;;;;;19.84;52.55;100590.53;4774813;30;20058;-90
2021/05/17 14:01:35;;;;;;;4.22;1.50;;;;;;;19.82;51.96;100592.31;4774845;30;20049;-89
2021/05/17 14:04:00;;;;;;;3.97;1.52;;;;;;;19.84;51.91;100594.00;4762930;30;20040;-89
2021/05/17 14:06:26;;;;;;;3.00;1.33;;;;;;;19.86;52.54;100594.81;4792540;30;20023;-88
2021/05/17 14:08:51;;;;;;;4.25;1.35;;;;;;;19.87;52.43;100601.75;4763440;30;20118;-90
2021/05/17 14:11:17;;;;;;;4.35;1.63;;;;;;;19.86;52.18;100607.00;4776827;30;20084;-88
2021/05/17 14:13:42;;;;;;;4.80;1.60;;;;;;;19.86;52.18;100615.72;4790676;30;20511;-91
2021/05/17 14:16:08;;;;;;;4.13;1.35;;;;;;;19.86;51.81;100612.22;4790485;30;20035;-88
2021/05/17 14:18:33;;;;;;;6.35;1.65;;;;;;;19.83;51.36;100617.53;4775778;30;20124;-89
2021/05/17 14:20:58;;;;;;;4.53;1.73;;;;;;;19.82;51.61;100614.06;4775399;30;20036;-88
2021/05/17 14:23:24;;;;;;;8.10;2.20;;;;;;;19.80;51.25;100625.44;4774974;30;20177;-90
2021/05/17 14:25:49;;;;;;;7.70;1.85;;;;;;;19.79;50.58;100626.31;4774786;30;20123;-87
2021/05/17 14:28:15;;;;;;;5.43;1.65;;;;;;;19.79;50.90;100631.53;4773944;30;20428;-87
2021/05/17 14:30:43;;;;;;;4.45;1.60;;;;;;;19.79;51.23;100629.78;4773748;30;20039;-87
2021/05/17 14:33:10;;;;;;;4.53;1.83;;;;;;;19.80;51.00;100634.13;4792167;30;20039;-88
2021/05/17 14:35:36;;;;;;;7.57;1.88;;;;;;;19.83;51.34;100641.88;4791108;30;20098;-89
2021/05/17 14:38:01;;;;;;;4.75;1.45;;;;;;;19.84;51.79;100642.75;4792694;30;20130;-86
2021/05/17 14:40:27;;;;;;;4.32;1.60;;;;;;;19.84;51.75;100654.06;4763212;30;20042;-86
2021/05/17 14:42:52;;;;;;;5.30;1.88;;;;;;;19.83;51.12;100644.50;4764262;30;20035;-85
2021/05/17 14:45:18;;;;;;;7.15;2.03;;;;;;;19.80;51.46;100656.78;4789692;30;20038;-87
2021/05/17 14:47:43;;;;;;;4.85;1.67;;;;;;;19.81;51.20;100667.16;4775434;30;20094;-87
2021/05/17 14:50:11;;;;;;;6.05;2.05;;;;;;;19.79;50.68;100668.94;4791293;30;20481;-87
2021/05/17 14:52:37;;;;;;;7.32;1.83;;;;;;;19.78;51.15;100676.84;4789355;30;20023;-88
2021/05/17 14:55:06;;;;;;;5.60;1.88;;;;;;;19.76;50.73;100684.69;4790851;30;20036;-87
2021/05/17 14:57:32;;;;;;;6.00;2.22;;;;;;;19.75;50.27;100683.00;4767331;30;20139;-87
2021/05/17 14:59:58;;;;;;;6.72;2.03;;;;;;;19.75;49.98;100688.22;4756788;30;20063;-86
2021/05/17 15:02:26;;;;;;;6.03;1.95;;;;;;;19.74;49.97;100691.69;4744643;30;20099;-86
2021/05/17 15:04:54;;;;;;;7.85;2.30;;;;;;;19.72;49.87;100690.88;4745980;30;20040;-87
2021/05/17 15:07:21;;;;;;;7.90;2.35;;;;;;;19.72;49.74;100691.72;4746164;30;20119;-87
2021/05/17 15:09:46;;;;;;;5.38;1.95;;;;;;;19.73;50.13;100697.81;4760497;30;20038;-88
2021/05/17 15:12:12;;;;;;;7.05;2.30;;;;;;;19.73;50.20;100706.50;4732322;30;20119;-87
2021/05/17 15:14:37;;;;;;;5.85;2.05;;;;;;;19.74;49.73;100702.13;4747000;30;20047;-88
2021/05/17 15:17:03;;;;;;;5.40;1.80;;;;;;;19.75;50.14;100714.31;4746642;30;20103;-87
2021/05/17 15:19:28;;;;;;;8.07;2.38;;;;;;;19.74;49.59;100699.53;4761240;30;20035;-88
2021/05/17 15:21:54;;;;;;;5.57;2.10;;;;;;;19.78;49.95;100705.56;4731610;30;20055;-87
2021/05/17 15:24:19;;;;;;;6.03;2.10;;;;;;;19.78;49.84;100711.63;4744521;30;20372;-88
2021/05/17 15:26:45;;;;;;;6.43;1.95;;;;;;;19.80;50.34;100724.66;4730738;30;20035;-88
2021/05/17 15:29:11;;;;;;;5.50;1.70;;;;;;;19.80;50.37;100714.22;4760163;30;20046;-88
2021/05/17 15:31:37;;;;;;;5.05;1.80;;;;;;;19.81;50.76;100719.38;4744609;30;20043;-89
2021/05/17 15:34:04;;;;;;;6.43;1.95;;;;;;;19.80;50.68;100722.91;4744586;30;20102;-88
2021/05/17 15:36:29;;;;;;;6.00;2.00;;;;;;;19.82;50.61;100717.66;4758498;30;20039;-88
2021/05/17 15:38:55;;;;;;;4.68;1.70;;;;;;;19.83;50.45;100738.50;4758220;30;20603;-86
2021/05/17 15:41:20;;;;;;;4.15;1.60;;;;;;;19.83;50.35;100735.03;4757580;30;20040;-88
2021/05/17 15:43:47;;;;;;;7.72;2.35;;;;;;;19.82;50.25;100731.56;4757825;30;20039;-89
2021/05/17 15:46:12;;;;;;;5.88;2.15;;;;;;;19.80;50.10;100749.00;4728993;30;20484;-87
2021/05/17 15:48:43;;;;;;;4.28;1.90;;;;;;;19.81;50.29;100752.47;4757507;30;20042;-90
2021/05/17 15:51:09;;;;;;;5.78;1.90;;;;;;;19.87;50.31;100758.44;4731201;30;20050;-87
2021/05/17 15:53:34;;;;;;;6.25;1.90;;;;;;;19.87;50.21;100757.59;4744457;30;20028;-88
2021/05/17 15:56:00;;;;;;;27.67;8.07;;;;;;;19.89;50.30;100758.41;4743342;30;20070;-85
2021/05/17 15:58:25;;;;;;;29.27;9.07;;;;;;;19.89;49.95;100763.63;4749446;30;20032;-87
2021/05/17 16:00:50;;;;;;;24.02;7.07;;;;;;;19.90;50.02;100770.56;4746138;29;20037;-88
2021/05/17 16:03:16;;;;;;;24.13;7.05;;;;;;;19.89;49.93;100766.25;4749886;30;20123;-88
2021/05/17 16:05:42;;;;;;;16.73;5.90;;;;;;;19.87;50.16;100771.50;4760928;30;20024;-88
2021/05/17 16:08:25;;;;;;;18.50;5.55;;;;;;;19.87;50.19;100768.88;4745487;30;20407;-88
2021/05/17 16:10:52;;;;;;;17.00;5.05;;;;;;;19.87;50.14;100768.03;4768220;24;20083;-87
2021/05/17 16:13:35;;;;;;;11.60;5.10;;;;;;;19.90;50.19;100786.22;4774877;30;20039;-88
2021/05/17 16:16:10;;;;;;;16.88;4.95;;;;;;;19.90;50.22;100781.00;4777568;30;20039;-87
2021/05/17 16:18:46;;;;;;;17.20;4.70;;;;;;;19.93;50.18;100784.44;4761393;30;20035;-87
2021/05/17 16:23:54;;;;;;;14.90;4.32;;;;;;;19.96;50.49;100796.56;4791291;30;20475;-89
2021/05/17 16:26:20;;;;;;;16.33;4.60;;;;;;;19.97;50.43;100800.03;4760912;30;20031;-91
2021/05/17 16:28:52;;;;;;;12.30;4.35;;;;;;;19.96;50.63;100798.31;4760916;30;20040;-91
2021/05/17 16:31:18;;;;;;;9.70;4.03;;;;;;;19.94;50.36;100799.19;4775011;30;20039;-92
2021/05/17 16:33:44;;;;;;;12.43;3.67;;;;;;;19.94;50.54;100811.41;4775097;30;20039;-90
2021/05/17 16:36:09;;;;;;;9.48;3.40;;;;;;;19.94;50.30;100808.78;4760333;30;20032;-91
2021/05/17 16:38:35;;;;;;;11.02;3.33;;;;;;;19.92;50.40;100808.84;4760606;30;20067;-93
2021/05/17 16:41:02;;;;;;;12.13;3.92;;;;;;;19.92;50.37;100811.47;4775211;30;20122;-89
2021/05/17 16:43:27;;;;;;;11.07;3.63;;;;;;;19.92;50.32;100811.47;4760803;30;20047;-92
2021/05/17 16:45:53;;;;;;;9.48;3.20;;;;;;;19.92;50.43;100814.06;4775488;30;20069;-90
2021/05/17 16:48:18;;;;;;;7.95;2.85;;;;;;;19.96;50.48;100822.69;4760245;30;20047;-89
2021/05/17 16:50:43;;;;;;;8.63;3.05;;;;;;;19.94;50.47;100820.09;4760077;30;20043;-88
2021/05/17 16:53:09;;;;;;;8.23;2.70;;;;;;;19.97;50.39;100826.16;4759917;30;20039;-90
2021/05/17 16:55:36;;;;;;;6.28;2.55;;;;;;;19.97;50.48;100831.38;4774863;30;20043;-90
2021/05/17 16:58:02;;;;;;;7.25;2.70;;;;;;;19.97;50.36;100836.59;4775156;30;20487;-90
2021/05/17 17:00:28;;;;;;;12.68;3.40;;;;;;;19.94;50.27;100830.53;4760044;30;20081;-92
2021/05/17 17:02:54;;;;;;;7.97;2.58;;;;;;;19.94;50.45;100829.69;4775257;30;20116;-92
2021/05/17 17:05:20;;;;;;;6.55;2.58;;;;;;;19.92;50.68;100828.84;4776203;30;20031;-90
2021/05/17 17:07:48;;;;;;;7.50;2.75;;;;;;;19.92;50.59;100836.69;4776154;30;20483;-91
2021/05/17 17:10:14;;;;;;;6.93;2.60;;;;;;;19.91;50.45;100833.22;4778465;30;20049;-91
2021/05/17 17:12:41;;;;;;;8.65;2.78;;;;;;;19.91;50.50;100835.84;4762717;30;20142;-90
2021/05/17 17:15:07;;;;;;;8.50;2.35;;;;;;;19.91;50.50;100838.44;4777527;30;20168;-89
2021/05/17 17:17:34;;;;;;;8.65;2.55;;;;;;;19.91;50.62;100842.81;4777368;30;20043;-90
2021/05/17 17:19:59;;;;;;;6.93;2.55;;;;;;;19.90;50.63;100843.69;4775895;30;20482;-90
2021/05/17 17:22:25;;;;;;;5.60;2.35;;;;;;;19.90;50.74;100848.91;4775422;30;20064;-90
2021/05/17 17:24:50;;;;;;;6.57;2.42;;;;;;;19.89;50.54;100853.28;4745363;30;20042;-91
2021/05/17 17:27:16;;;;;;;6.47;2.50;;;;;;;19.89;50.77;100858.50;4761593;30;20039;-89
2021/05/17 17:29:42;;;;;;;5.60;2.45;;;;;;;19.87;50.73;100860.28;4774790;30;20031;-90
2021/05/17 17:32:08;;;;;;;7.10;2.28;;;;;;;19.88;51.13;100863.75;4777385;30;20031;-91
2021/05/17 17:34:39;;;;;;;4.10;2.05;;;;;;;19.84;50.89;100859.50;4779241;30;20038;-89
2021/05/17 17:37:12;;;;;;;4.40;2.25;;;;;;;19.86;51.09;100862.91;4778288;30;20406;-92
2021/05/17 17:39:39;;;;;;;5.88;2.33;;;;;;;19.86;50.96;100868.13;4781324;29;20085;-90
2021/05/17 17:42:05;;;;;;;4.70;2.00;;;;;;;19.85;51.02;100866.44;4783012;30;20035;-90
2021/05/17 17:44:31;;;;;;;5.65;2.50;;;;;;;19.87;51.33;100872.50;4767306;30;20031;-90
2021/05/17 17:46:57;;;;;;;4.13;2.53;;;;;;;19.86;51.46;100869.03;4780649;30;20046;-91
2021/05/17 17:49:22;;;;;;;4.55;1.98;;;;;;;19.87;51.55;100870.72;4767340;30;20043;-89
2021/05/17 17:51:48;;;;;;;5.40;2.30;;;;;;;19.86;51.68;100876.84;4783560;30;20097;-90
2021/05/17 17:54:16;;;;;;;4.72;2.00;;;;;;;19.84;51.54;100870.81;4769435;30;20064;-89
2021/05/17 17:56:43;;;;;;;5.22;2.17;;;;;;;19.85;51.87;100882.09;4775905;30;20031;-91
2021/05/17 17:59:10;;;;;;;4.97;2.15;;;;;;;19.83;51.64;100878.66;4775089;30;20476;-89
2021/05/17 18:01:37;;;;;;;4.80;2.10;;;;;;;19.84;51.77;100880.41;4775441;30;20130;-91
2021/05/17 18:04:03;;;;;;;5.40;2.42;;;;;;;19.83;51.86;100881.25;4775110;30;20507;-91
2021/05/17 18:06:29;;;;;;;3.80;2.10;;;;;;;19.83;51.90;100876.91;4777076;30;20046;-90
2021/05/17 18:08:57;;;;;;;4.68;2.20;;;;;;;19.82;52.02;100880.41;4762591;30;20491;-90
2021/05/17 18:11:25;;;;;;;4.03;2.28;;;;;;;19.83;52.07;100878.66;4760078;30;20097;-91
2021/05/17 18:13:50;;;;;;;5.95;2.30;;;;;;;19.83;52.16;100883.88;4759770;30;20135;-91
2021/05/17 18:16:17;;;;;;;4.68;2.30;;;;;;;19.82;52.01;100885.63;4775344;30;20067;-92
2021/05/17 18:18:48;;;;;;;4.78;1.98;;;;;;;19.81;52.22;100896.94;4790383;30;20027;-91
2021/05/17 18:21:15;;;;;;;4.57;2.20;;;;;;;19.81;52.36;100907.41;4790777;30;20035;-92
2021/05/17 18:23:40;;;;;;;5.88;2.20;;;;;;;19.80;52.40;100913.53;4790227;30;20488;-89
2021/05/17 18:26:07;;;;;;;4.00;1.73;;;;;;;19.79;52.66;100911.78;4773817;30;20111;-90
2021/05/17 18:28:32;;;;;;;5.38;1.88;;;;;;;19.80;52.68;100918.75;4774029;30;20027;-92
2021/05/17 18:31:02;;;;;;;3.83;2.10;;;;;;;19.79;52.53;100916.16;4789699;30;20057;-91
2021/05/17 18:33:36;;;;;;;6.20;2.08;;;;;;;19.78;52.42;100917.06;4760659;30;20040;-92
2021/05/17 18:36:15;;;;;;;5.38;2.40;;;;;;;19.76;52.56;100916.22;4762944;30;20071;-90
2021/05/17 18:38:48;;;;;;;5.72;2.00;;;;;;;19.77;52.76;100918.78;4778303;30;20032;-90
2021/05/17 18:41:15;;;;;;;9.25;2.42;;;;;;;19.77;52.84;100926.63;4794278;29;20023;-89
2021/05/17 18:46:12;;;;;;;11.23;2.63;;;;;;;19.76;52.97;100921.44;4799263;30;20089;-90
2021/05/17 18:48:44;;;;;;;9.65;2.72;;;;;;;19.78;53.22;100923.13;4786740;30;20106;-90
2021/05/17 18:51:10;;;;;;;6.80;2.33;;;;;;;19.75;53.24;100923.19;4794076;30;20068;-92